createdAt,value
2018-12-30T00:00:58.314Z,100628.88
2018-12-30T00:03:29.270Z,100624.42
2018-12-30T00:06:00.801Z,100620.36
2018-12-30T00:08:32.349Z,100619.77
2018-12-30T00:11:03.261Z,100615.59
2018-12-30T00:13:34.866Z,100611.29
2018-12-30T00:16:06.428Z,100607.13
2018-12-30T00:18:37.328Z,100607.16
2018-12-30T00:21:09.176Z,100597.30
2018-12-30T00:23:40.609Z,100597.30
2018-12-30T00:26:11.423Z,100595.92
2018-12-30T00:28:42.360Z,100594.95
2018-12-30T00:31:13.208Z,100599.46
2018-12-30T00:33:44.439Z,100591.46
2018-12-30T00:36:15.363Z,100596.92
2018-12-30T00:38:46.221Z,100603.30
2018-12-30T00:41:17.211Z,100601.50
2018-12-30T00:43:48.923Z,100599.94
2018-12-30T00:46:21.360Z,100598.99
2018-12-30T00:48:52.410Z,100602.93
2018-12-30T00:51:23.269Z,100597.00
2018-12-30T00:53:54.161Z,100604.39
2018-12-30T00:56:25.105Z,100599.66
2018-12-30T00:58:56.296Z,100600.31
2018-12-30T01:01:27.473Z,100591.78
2018-12-30T01:03:58.311Z,100595.52
2018-12-30T01:06:29.435Z,100583.91
2018-12-30T01:09:00.402Z,100587.12
2018-12-30T01:11:31.224Z,100588.01
2018-12-30T01:14:02.306Z,100586.55
2018-12-30T01:16:33.167Z,100582.03
2018-12-30T01:19:04.324Z,100585.69
2018-12-30T01:21:35.377Z,100577.66
2018-12-30T01:24:06.404Z,100581.17
2018-12-30T01:26:37.469Z,100581.51
2018-12-30T01:29:08.298Z,100581.66
2018-12-30T01:31:40.330Z,100572.63
2018-12-30T01:34:11.273Z,100577.42
2018-12-30T01:36:42.210Z,100572.09
2018-12-30T01:39:13.243Z,100568.96
2018-12-30T01:41:44.117Z,100572.32
2018-12-30T01:44:15.581Z,100570.89
2018-12-30T01:46:46.516Z,100563.71
2018-12-30T01:49:17.405Z,100570.73
2018-12-30T01:51:48.534Z,100572.90
2018-12-30T01:54:19.885Z,100569.84
2018-12-30T01:56:51.009Z,100571.12
2018-12-30T01:59:22.081Z,100573.84
2018-12-30T02:01:53.079Z,100573.05
2018-12-30T02:04:24.608Z,100564.92
2018-12-30T02:06:55.816Z,100567.34
2018-12-30T02:09:26.945Z,100562.91
2018-12-30T02:11:58.145Z,100561.14
2018-12-30T02:14:29.310Z,100561.14
2018-12-30T02:17:01.493Z,100557.27
2018-12-30T02:19:32.367Z,100559.40
2018-12-30T02:22:03.242Z,100563.30
2018-12-30T02:24:34.235Z,100555.06
2018-12-30T02:27:05.576Z,100554.91
2018-12-30T02:29:36.697Z,100554.33
2018-12-30T02:32:07.550Z,100542.36
2018-12-30T02:34:38.411Z,100536.53
2018-12-30T02:37:09.421Z,100536.98
2018-12-30T02:39:40.340Z,100533.42
2018-12-30T02:42:11.306Z,100525.30
2018-12-30T02:44:42.325Z,100529.98
2018-12-30T02:47:13.341Z,100519.78
2018-12-30T02:49:44.342Z,100522.37
2018-12-30T02:52:15.250Z,100518.59
2018-12-30T02:54:46.405Z,100518.22
2018-12-30T02:57:17.287Z,100509.13
2018-12-30T02:59:48.775Z,100511.39
2018-12-30T03:02:20.026Z,100507.75
2018-12-30T03:04:51.073Z,100506.49
2018-12-30T03:07:21.969Z,100504.60
2018-12-30T03:09:53.260Z,100498.53
2018-12-30T03:12:24.210Z,100500.14
2018-12-30T03:14:55.302Z,100490.23
2018-12-30T03:17:26.410Z,100493.22
2018-12-30T03:19:58.362Z,100497.16
2018-12-30T03:22:29.311Z,100497.43
2018-12-30T03:25:00.349Z,100490.75
2018-12-30T03:27:31.207Z,100490.75
2018-12-30T03:30:02.351Z,100491.91
2018-12-30T03:32:33.316Z,100494.32
2018-12-30T03:35:04.428Z,100486.08
2018-12-30T03:37:35.286Z,100491.13
2018-12-30T03:40:07.891Z,100486.05
2018-12-30T03:42:40.316Z,100482.52
2018-12-30T03:45:11.248Z,100482.52
2018-12-30T03:47:42.168Z,100487.36
2018-12-30T03:50:13.077Z,100478.06
2018-12-30T03:52:44.357Z,100484.68
2018-12-30T03:55:15.217Z,100483.88
2018-12-30T03:57:46.276Z,100480.68
2018-12-30T04:00:17.375Z,100477.81
2018-12-30T04:02:49.353Z,100478.18
2018-12-30T04:05:20.275Z,100477.84
2018-12-30T04:07:51.105Z,100482.14
2018-12-30T04:10:21.982Z,100479.48
2018-12-30T04:12:53.178Z,100480.31
2018-12-30T04:15:24.030Z,100483.46
2018-12-30T04:17:55.325Z,100486.30
2018-12-30T04:20:26.201Z,100483.98
2018-12-30T04:22:57.334Z,100476.50
2018-12-30T04:25:28.350Z,100472.66
2018-12-30T04:27:59.173Z,100477.50
2018-12-30T04:30:30.152Z,100475.12
2018-12-30T04:33:01.397Z,100472.70
2018-12-30T04:35:32.253Z,100473.66
2018-12-30T04:38:03.349Z,100470.87
2018-12-30T04:40:34.291Z,100469.47
2018-12-30T04:43:05.515Z,100463.95
2018-12-30T04:45:36.448Z,100460.37
2018-12-30T04:48:07.268Z,100461.85
2018-12-30T04:50:39.865Z,100463.95
2018-12-30T04:53:11.202Z,100466.20
2018-12-30T04:55:42.407Z,100464.59
2018-12-30T04:58:13.272Z,100468.25
2018-12-30T05:00:44.124Z,100464.31
2018-12-30T05:03:15.316Z,100461.45
2018-12-30T05:05:46.264Z,100465.75
2018-12-30T05:08:17.279Z,100459.80
2018-12-30T05:10:48.125Z,100461.85
2018-12-30T05:13:19.403Z,100466.48
2018-12-30T05:15:50.457Z,100459.14
2018-12-30T05:18:21.276Z,100464.27
2018-12-30T05:20:52.419Z,100461.43
2018-12-30T05:23:23.422Z,100465.73
2018-12-30T05:25:54.316Z,100460.08
2018-12-30T05:28:25.229Z,100461.06
2018-12-30T05:30:56.066Z,100462.74
2018-12-30T05:33:27.122Z,100461.59
2018-12-30T05:35:58.209Z,100462.53
2018-12-30T05:38:29.064Z,100458.59
2018-12-30T05:40:59.995Z,100463.48
2018-12-30T05:43:32.314Z,100460.70
2018-12-30T05:46:03.233Z,100463.11
2018-12-30T05:48:34.292Z,100467.32
2018-12-30T05:51:05.152Z,100464.00
2018-12-30T05:53:36.535Z,100471.66
2018-12-30T05:56:07.671Z,100467.72
2018-12-30T05:58:38.837Z,100470.34
2018-12-30T06:01:10.050Z,100462.32
2018-12-30T06:03:41.239Z,100463.91
2018-12-30T06:06:12.262Z,100463.91
2018-12-30T06:08:43.106Z,100473.33
2018-12-30T06:11:14.088Z,100470.34
2018-12-30T06:13:45.078Z,100468.21
2018-12-30T06:16:16.229Z,100468.03
2018-12-30T06:18:47.467Z,100467.30
2018-12-30T06:21:18.325Z,100469.47
2018-12-30T06:23:49.372Z,100475.53
2018-12-30T06:26:20.515Z,100470.87
2018-12-30T06:28:51.374Z,100476.75
2018-12-30T06:31:22.520Z,100477.40
2018-12-30T06:33:53.370Z,100480.75
2018-12-30T06:36:24.736Z,100479.45
2018-12-30T06:38:56.036Z,100486.73
2018-12-30T06:41:27.203Z,100488.78
2018-12-30T06:43:58.204Z,100483.90
2018-12-30T06:46:29.283Z,100485.58
2018-12-30T06:49:00.239Z,100486.31
2018-12-30T06:51:31.210Z,100485.36
2018-12-30T06:54:06.851Z,100482.16
2018-12-30T06:56:38.284Z,100482.89
2018-12-30T06:59:09.137Z,100485.36
2018-12-30T07:01:39.995Z,100483.93
2018-12-30T07:04:11.225Z,100484.05
2018-12-30T07:06:42.090Z,100488.94
2018-12-30T07:09:13.359Z,100482.62
2018-12-30T07:11:44.178Z,100483.47
2018-12-30T07:14:15.007Z,100488.02
2018-12-30T07:16:46.088Z,100484.78
2018-12-30T07:19:17.003Z,100484.66
2018-12-30T07:21:48.133Z,100485.61
2018-12-30T07:24:18.965Z,100487.65
2018-12-30T07:26:50.649Z,100479.69
2018-12-30T07:29:21.846Z,100483.98
2018-12-30T07:31:53.058Z,100492.23
2018-12-30T07:34:24.309Z,100482.83
2018-12-30T07:36:55.286Z,100472.42
2018-12-30T07:39:26.149Z,100479.98
2018-12-30T07:41:57.078Z,100486.12
2018-12-30T07:44:28.027Z,100481.67
2018-12-30T07:46:59.627Z,100492.90
2018-12-30T07:49:30.486Z,100487.30
2018-12-30T07:52:03.059Z,100486.21
2018-12-30T07:54:34.223Z,100484.44
2018-12-30T07:57:05.070Z,100483.86
2018-12-30T07:59:36.448Z,100479.22
2018-12-30T08:02:07.305Z,100479.00
2018-12-30T08:04:38.148Z,100479.12
2018-12-30T08:07:09.077Z,100476.86
2018-12-30T08:09:40.242Z,100480.07
2018-12-30T08:12:11.293Z,100483.88
2018-12-30T08:14:42.498Z,100477.37
2018-12-30T08:17:13.709Z,100475.79
2018-12-30T08:19:44.552Z,100477.95
2018-12-30T08:22:15.481Z,100473.22
2018-12-30T08:24:46.314Z,100483.38
2018-12-30T08:27:17.577Z,100477.81
2018-12-30T08:29:48.428Z,100476.45
2018-12-30T08:32:19.252Z,100482.34
2018-12-30T08:34:50.715Z,100473.14
2018-12-30T08:37:22.009Z,100476.28
2018-12-30T08:39:53.271Z,100477.81
2018-12-30T08:42:24.264Z,100480.00
2018-12-30T08:44:55.115Z,100475.48
2018-12-30T08:47:26.154Z,100477.16
2018-12-30T08:49:57.245Z,100476.88
2018-12-30T08:52:28.347Z,100473.44
2018-12-30T08:54:59.347Z,100479.27
2018-12-30T08:57:30.235Z,100477.81
2018-12-30T09:00:02.093Z,100486.78
2018-12-30T09:02:34.410Z,100486.78
2018-12-30T09:05:05.581Z,100474.23
2018-12-30T09:07:36.791Z,100474.60
2018-12-30T09:10:08.198Z,100476.86
2018-12-30T09:12:39.125Z,100481.53
2018-12-30T09:15:10.338Z,100475.42
2018-12-30T09:17:41.368Z,100481.31
2018-12-30T09:20:12.306Z,100482.41
2018-12-30T09:22:43.300Z,100491.43
2018-12-30T09:25:14.245Z,100482.73
2018-12-30T09:27:45.136Z,100484.98
2018-12-30T09:30:16.127Z,100479.00
2018-12-30T09:32:47.267Z,100481.92
2018-12-30T09:35:18.218Z,100481.43
2018-12-30T09:37:49.118Z,100487.05
2018-12-30T09:40:19.985Z,100487.17
2018-12-30T09:42:51.262Z,100479.88
2018-12-30T09:45:22.433Z,100483.82
2018-12-30T09:47:53.279Z,100478.70
2018-12-30T09:50:24.281Z,100481.33
2018-12-30T09:52:55.187Z,100475.73
2018-12-30T09:55:26.736Z,100475.73
2018-12-30T09:57:57.940Z,100486.14
2018-12-30T10:00:29.302Z,100475.41
2018-12-30T10:03:00.284Z,100472.56
2018-12-30T10:05:31.327Z,100465.41
2018-12-30T10:08:02.448Z,100465.41
2018-12-30T10:10:33.333Z,100468.89
2018-12-30T10:13:04.271Z,100472.61
2018-12-30T10:15:35.284Z,100468.08
2018-12-30T10:18:06.263Z,100461.77
2018-12-30T10:20:37.519Z,100464.41
2018-12-30T10:23:08.392Z,100461.64
2018-12-30T10:25:39.375Z,100459.02
2018-12-30T10:28:10.502Z,100466.72
2018-12-30T10:30:41.400Z,100466.72
2018-12-30T10:33:12.483Z,100460.73
2018-12-30T10:35:43.375Z,100455.61
2018-12-30T10:38:14.358Z,100467.58
2018-12-30T10:40:45.363Z,100455.78
2018-12-30T10:43:16.378Z,100462.12
2018-12-30T10:45:47.348Z,100454.82
2018-12-30T10:48:18.398Z,100461.30
2018-12-30T10:50:49.379Z,100458.20
2018-12-30T10:53:20.313Z,100455.70
2018-12-30T10:55:51.336Z,100448.30
2018-12-30T10:58:22.300Z,100448.55
2018-12-30T11:00:53.551Z,100450.95
2018-12-30T11:03:24.435Z,100445.55
2018-12-30T11:05:55.373Z,100441.41
2018-12-30T11:08:26.615Z,100444.76
2018-12-30T11:10:57.798Z,100440.22
2018-12-30T11:13:30.634Z,100438.30
2018-12-30T11:16:01.851Z,100441.66
2018-12-30T11:18:33.156Z,100435.44
2018-12-30T11:21:04.110Z,100435.80
2018-12-30T11:23:34.980Z,100428.27
2018-12-30T11:26:06.492Z,100420.23
2018-12-30T11:28:37.504Z,100432.79
2018-12-30T11:31:08.533Z,100428.97
2018-12-30T11:33:39.523Z,100426.69
2018-12-30T11:36:11.703Z,100429.22
2018-12-30T11:38:43.120Z,100438.42
2018-12-30T11:41:14.101Z,100435.19
2018-12-30T11:43:45.443Z,100444.30
2018-12-30T11:46:17.066Z,100447.28
2018-12-30T11:48:47.965Z,100440.11
2018-12-30T11:51:19.863Z,100440.34
2018-12-30T11:53:51.283Z,100445.12
2018-12-30T11:56:22.328Z,100457.81
2018-12-30T11:58:53.340Z,100456.98
2018-12-30T12:01:24.347Z,100462.12
2018-12-30T12:03:55.392Z,100469.66
2018-12-30T12:06:26.330Z,100489.03
2018-12-30T12:08:57.348Z,100479.34
2018-12-30T12:11:28.337Z,100477.90
2018-12-30T12:13:59.267Z,100491.16
2018-12-30T12:16:30.477Z,100490.93
2018-12-30T12:19:02.423Z,100493.06
2018-12-30T12:21:33.288Z,100500.01
2018-12-30T12:24:04.218Z,100509.45
2018-12-30T12:26:39.874Z,100509.55
2018-12-30T12:29:12.230Z,100513.95
2018-12-30T12:31:43.080Z,100513.83
2018-12-30T12:34:14.612Z,100520.41
2018-12-30T12:36:45.587Z,100530.30
2018-12-30T12:39:16.496Z,100542.14
2018-12-30T12:45:07.652Z,100543.69
2018-12-30T12:47:41.835Z,100549.44
2018-12-30T12:50:13.799Z,100545.68
2018-12-30T12:52:44.553Z,100551.76
2018-12-30T12:55:15.097Z,100558.56
2018-12-30T12:57:45.835Z,100556.87
2018-12-30T13:00:16.740Z,100570.92
2018-12-30T13:02:47.426Z,100556.33
2018-12-30T13:05:17.861Z,100574.85
2018-12-30T13:07:48.593Z,100560.34
2018-12-30T13:10:19.023Z,100577.07
2018-12-30T13:12:50.281Z,100582.55
2018-12-30T13:15:20.716Z,100594.81
2018-12-30T13:17:54.000Z,100598.98
2018-12-30T13:20:24.858Z,100596.34
2018-12-30T13:22:55.626Z,100599.91
2018-12-30T13:25:26.444Z,100613.50
2018-12-30T13:27:56.955Z,100605.59
2018-12-30T13:30:27.748Z,100618.31
2018-12-30T13:32:58.362Z,100618.89
2018-12-30T13:35:28.787Z,100635.97
2018-12-30T13:37:59.930Z,100625.98
2018-12-30T13:40:30.541Z,100629.73
2018-12-30T13:43:01.148Z,100640.20
2018-12-30T13:45:32.339Z,100648.23
2018-12-30T13:48:05.046Z,100648.23
2018-12-30T13:50:35.958Z,100646.97
2018-12-30T13:53:06.737Z,100646.97
2018-12-30T13:55:37.470Z,100626.09
2018-12-30T13:58:08.127Z,100660.80
2018-12-30T14:00:38.801Z,100650.71
2018-12-30T14:03:09.619Z,100662.48
2018-12-30T14:05:40.078Z,100666.05
2018-12-30T14:08:10.551Z,100679.55
2018-12-30T14:10:41.034Z,100679.55
2018-12-30T14:13:12.165Z,100678.69
2018-12-30T14:15:50.652Z,100683.90
2018-12-30T14:18:15.479Z,100682.42
2018-12-30T14:20:45.906Z,100688.25
2018-12-30T14:23:16.657Z,100682.92
2018-12-30T14:25:47.399Z,100690.92
2018-12-30T14:28:17.970Z,100686.03
2018-12-30T14:30:48.681Z,100694.73
2018-12-30T14:33:19.181Z,100700.47
2018-12-30T14:35:49.867Z,100698.30
2018-12-30T14:38:20.672Z,100700.35
2018-12-30T14:40:51.587Z,100706.55
2018-12-30T14:43:22.037Z,100720.16
2018-12-30T14:45:52.633Z,100721.92
2018-12-30T14:48:23.498Z,100721.92
2018-12-30T14:50:54.098Z,100729.55
2018-12-30T14:53:25.012Z,100738.98
2018-12-30T14:55:56.043Z,100742.84
2018-12-30T14:58:28.106Z,100744.16
2018-12-30T15:00:59.141Z,100745.55
2018-12-30T15:03:30.026Z,100756.73
2018-12-30T15:06:00.970Z,100761.98
2018-12-30T15:08:31.948Z,100769.95
2018-12-30T15:11:04.201Z,100771.95
2018-12-30T15:13:35.083Z,100771.95
2018-12-30T15:16:05.859Z,100773.63
2018-12-30T15:18:36.537Z,100760.71
2018-12-30T15:21:07.359Z,100771.29
2018-12-30T15:23:38.046Z,100784.90
2018-12-30T15:26:08.869Z,100768.21
2018-12-30T15:28:40.874Z,100772.97
2018-12-30T15:31:12.399Z,100775.14
2018-12-30T15:33:43.356Z,100771.58
2018-12-30T15:36:15.211Z,100778.51
2018-12-30T15:38:58.211Z,100778.71
2018-12-30T15:41:32.032Z,100778.71
2018-12-30T15:47:44.698Z,100790.89
2018-12-30T15:50:15.248Z,100785.16
2018-12-30T15:52:46.479Z,100776.53
2018-12-30T15:55:19.605Z,100794.71
2018-12-30T15:57:50.069Z,100790.20
2018-12-30T16:00:36.163Z,100794.06
2018-12-30T16:03:49.972Z,100799.77
2018-12-30T16:06:27.269Z,100808.41
2018-12-30T16:09:18.814Z,100808.41
2018-12-30T16:11:49.866Z,100798.64
2018-12-30T16:14:20.620Z,100791.72
2018-12-30T16:16:51.649Z,100796.59
2018-12-30T16:19:23.120Z,100807.20
2018-12-30T16:21:53.572Z,100825.46
2018-12-30T16:24:24.088Z,100823.13
2018-12-30T16:26:54.544Z,100823.13
2018-12-30T16:29:24.983Z,100818.99
2018-12-30T16:31:55.738Z,100833.60
2018-12-30T16:34:26.691Z,100843.05
2018-12-30T16:36:57.519Z,100851.20
2018-12-30T16:39:27.994Z,100845.59
2018-12-30T16:42:00.628Z,100858.14
2018-12-30T16:44:31.144Z,100850.27
2018-12-30T16:47:02.108Z,100857.58
2018-12-30T16:49:32.916Z,100871.45
2018-12-30T16:52:04.044Z,100869.76
2018-12-30T16:54:34.872Z,100867.59
2018-12-30T16:57:05.681Z,100870.59
2018-12-30T16:59:36.122Z,100872.75
2018-12-30T17:02:07.650Z,100870.02
2018-12-30T17:04:38.222Z,100866.08
2018-12-30T17:07:08.884Z,100866.08
2018-12-30T17:09:39.693Z,100880.89
2018-12-30T17:12:10.454Z,100893.27
2018-12-30T17:14:41.039Z,100888.51
2018-12-30T17:17:11.628Z,100888.51
2018-12-30T17:19:42.400Z,100891.70
2018-12-30T17:22:12.982Z,100889.64
2018-12-30T17:24:43.711Z,100890.09
2018-12-30T17:27:15.799Z,100890.22
2018-12-30T17:29:46.925Z,100890.22
2018-12-30T17:32:17.629Z,100901.09
2018-12-30T17:34:49.768Z,100911.22
2018-12-30T17:37:22.458Z,100913.27
2018-12-30T17:39:53.298Z,100913.27
2018-12-30T17:42:23.950Z,100910.84
2018-12-30T17:44:54.655Z,100916.81
2018-12-30T17:47:29.729Z,100921.36
2018-12-30T17:50:05.296Z,100915.03
2018-12-30T17:52:37.115Z,100918.54
2018-12-30T17:55:08.132Z,100926.49
2018-12-30T17:57:41.430Z,100926.30
2018-12-30T18:00:12.305Z,100925.01
2018-12-30T18:02:43.307Z,100919.41
2018-12-30T18:05:14.991Z,100917.80
2018-12-30T18:07:45.759Z,100927.20
2018-12-30T18:10:16.506Z,100926.27
2018-12-30T18:12:46.974Z,100926.27
2018-12-30T18:15:17.820Z,100926.75
2018-12-30T18:17:49.004Z,100925.81
2018-12-30T18:20:19.891Z,100922.90
2018-12-30T18:22:50.517Z,100936.88
2018-12-30T18:25:21.890Z,100935.45
2018-12-30T18:27:52.665Z,100940.06
2018-12-30T18:30:23.133Z,100936.58
2018-12-30T18:32:54.171Z,100937.44
2018-12-30T18:35:24.997Z,100942.49
2018-12-30T18:37:56.182Z,100934.61
2018-12-30T18:40:27.279Z,100943.23
2018-12-30T18:42:58.150Z,100937.88
2018-12-30T18:45:29.103Z,100939.10
2018-12-30T18:47:59.957Z,100945.09
2018-12-30T18:50:30.390Z,100949.78
2018-12-30T18:53:01.445Z,100948.66
2018-12-30T18:55:31.908Z,100947.06
2018-12-30T18:58:02.884Z,100954.48
2018-12-30T19:00:34.124Z,100953.55
2018-12-30T19:03:04.896Z,100955.69
2018-12-30T19:05:35.665Z,100961.80
2018-12-30T19:08:06.419Z,100963.11
2018-12-30T19:10:37.309Z,100956.17
2018-12-30T19:13:07.727Z,100950.35
2018-12-30T19:15:38.461Z,100950.72
2018-12-30T19:18:08.974Z,100951.66
2018-12-30T19:20:39.521Z,100952.23
2018-12-30T19:23:10.138Z,100954.56
2018-12-30T19:25:41.736Z,100953.17
2018-12-30T19:28:12.737Z,100960.30
2018-12-30T19:30:50.751Z,100963.19
2018-12-30T19:33:21.474Z,100964.42
2018-12-30T19:35:52.175Z,100968.36
2018-12-30T19:38:22.670Z,100965.36
2018-12-30T19:40:53.506Z,100961.42
2018-12-30T19:43:24.321Z,100971.73
2018-12-30T19:45:54.804Z,100975.67
2018-12-30T19:48:33.601Z,100971.81
2018-12-30T19:51:04.193Z,100972.13
2018-12-30T19:53:34.826Z,100977.94
2018-12-30T19:56:05.791Z,100975.20
2018-12-30T19:58:36.590Z,100976.63
2018-12-30T20:01:07.185Z,100981.88
2018-12-30T20:03:37.986Z,100980.19
2018-12-30T20:06:08.632Z,100975.88
2018-12-30T20:08:39.218Z,100970.53
2018-12-30T20:11:09.977Z,100980.58
2018-12-30T20:13:40.937Z,100982.07
2018-12-30T20:16:11.868Z,100984.41
2018-12-30T20:18:42.575Z,100995.84
2018-12-30T20:21:13.363Z,100988.27
2018-12-30T20:23:43.938Z,100996.14
2018-12-30T20:26:14.702Z,100994.53
2018-12-30T20:28:45.530Z,101006.09
2018-12-30T20:31:15.998Z,101004.41
2018-12-30T20:33:48.484Z,101006.73
2018-12-30T20:36:18.970Z,101015.10
2018-12-30T20:38:49.782Z,101014.91
2018-12-30T20:41:20.677Z,101017.73
2018-12-30T20:43:51.466Z,101022.48
2018-12-30T20:46:22.169Z,101018.74
2018-12-30T20:48:52.667Z,101019.38
2018-12-30T20:51:23.321Z,101019.11
2018-12-30T20:53:55.046Z,101017.13
2018-12-30T20:56:25.695Z,101020.60
2018-12-30T20:58:56.579Z,101023.05
2018-12-30T21:01:27.258Z,101023.05
2018-12-30T21:03:58.000Z,101009.73
2018-12-30T21:06:28.896Z,101026.31
2018-12-30T21:08:59.720Z,101027.43
2018-12-30T21:11:30.642Z,101024.98
2018-12-30T21:14:01.281Z,101027.98
2018-12-30T21:16:32.041Z,101038.86
2018-12-30T21:19:04.499Z,101040.17
2018-12-30T21:21:34.959Z,101040.55
2018-12-30T21:24:05.977Z,101043.66
2018-12-30T21:26:36.994Z,101058.84
2018-12-30T21:29:07.776Z,101057.97
2018-12-30T21:31:38.515Z,101063.05
2018-12-30T21:34:08.908Z,101067.16
2018-12-30T21:36:39.837Z,101065.77
2018-12-30T21:39:10.893Z,101067.73
2018-12-30T21:41:42.213Z,101063.15
2018-12-30T21:44:12.960Z,101069.22
2018-12-30T21:46:43.723Z,101065.77
2018-12-30T21:49:16.932Z,101071.02
2018-12-30T21:51:47.594Z,101074.09
2018-12-30T21:54:18.991Z,101074.84
2018-12-30T21:56:54.714Z,101067.27
2018-12-30T21:59:21.800Z,101078.21
2018-12-30T22:01:52.664Z,101085.14
2018-12-30T22:04:23.077Z,101092.56
2018-12-30T22:06:53.589Z,101085.25
2018-12-30T22:09:24.038Z,101093.58
2018-12-30T22:11:54.720Z,101095.82
2018-12-30T22:14:26.700Z,101087.58
2018-12-30T22:16:57.046Z,101103.52
2018-12-30T22:19:27.449Z,101098.37
2018-12-30T22:21:57.968Z,101102.31
2018-12-30T22:24:28.486Z,101107.73
2018-12-30T22:26:58.887Z,101097.87
2018-12-30T22:29:29.553Z,101105.36
2018-12-30T22:31:59.947Z,101112.86
2018-12-30T22:34:31.032Z,101110.77
2018-12-30T22:37:01.644Z,101115.94
2018-12-30T22:39:32.003Z,101115.94
2018-12-30T22:42:02.735Z,101123.50
2018-12-30T22:44:33.087Z,101117.43
2018-12-30T22:47:03.751Z,101128.67
2018-12-30T22:49:34.505Z,101116.88
2018-12-30T22:52:04.988Z,101123.05
2018-12-30T22:54:35.702Z,101119.39
2018-12-30T22:57:06.079Z,101120.70
2018-12-30T22:59:36.521Z,101122.39
2018-12-30T23:02:06.942Z,101133.27
2018-12-30T23:04:37.588Z,101136.64
2018-12-30T23:07:08.140Z,101136.64
2018-12-30T23:09:38.562Z,101127.08
2018-12-30T23:12:08.982Z,101134.02
2018-12-30T23:14:39.658Z,101123.52
2018-12-30T23:17:10.017Z,101132.16
2018-12-30T23:19:40.801Z,101133.02
2018-12-30T23:22:11.536Z,101132.91
2018-12-30T23:24:41.904Z,101123.27
2018-12-30T23:27:12.536Z,101135.91
2018-12-30T23:29:42.926Z,101138.53
2018-12-30T23:32:13.635Z,101129.35
2018-12-30T23:34:44.059Z,101129.35
2018-12-30T23:37:14.679Z,101138.35
2018-12-30T23:39:45.138Z,101140.59
2018-12-30T23:42:15.876Z,101142.39
2018-12-30T23:44:46.733Z,101143.22
2018-12-30T23:47:17.393Z,101138.64
2018-12-30T23:49:47.732Z,101144.71
2018-12-30T23:52:18.443Z,101149.69
2018-12-30T23:54:48.806Z,101143.40
2018-12-30T23:57:19.768Z,101140.88
2018-12-30T23:59:50.421Z,101146.13
